Time;durP1;ratioP1;P1;durP2;ratioP2;P2;SDS_P1;SDS_P2;PMS_P1;PMS_P2;Temp;Humidity;BMP_temperature;BMP_pressure;BME280_temperature;BME280_humidity;BME280_pressure;Samples;Min_cycle;Max_cycle;Signal;HPM_P1;HPM_P2
2024/04/13 00:01:57;;;;;;;3.85;1.48;;;;;;;12.87;74.39;100964.44;5371857;26;20014;-48
2024/04/13 00:04:24;;;;;;;5.53;2.05;;;;;;;12.85;74.85;100956.66;5366089;26;20086;-49
2024/04/13 00:06:53;;;;;;;9.23;2.05;;;;;;;12.87;74.14;100959.22;5368918;26;20078;-50
2024/04/13 00:09:21;;;;;;;10.82;1.75;;;;;;;12.79;74.19;100951.44;5364347;26;19996;-49
2024/04/13 00:11:49;;;;;;;4.60;1.48;;;;;;;12.83;74.02;100955.78;5356640;26;20094;-48
2024/04/13 00:14:16;;;;;;;5.45;1.20;;;;;;;12.76;74.50;100951.41;5360788;26;20015;-48
2024/04/13 00:16:44;;;;;;;5.75;1.73;;;;;;;12.75;74.39;100947.09;5359101;26;20012;-49
2024/04/13 00:19:11;;;;;;;5.43;1.95;;;;;;;12.72;74.81;100939.28;5370437;26;20012;-50
2024/04/13 00:21:41;;;;;;;3.55;1.33;;;;;;;12.60;75.49;100933.19;5355696;26;20018;-49
2024/04/13 00:24:11;;;;;;;6.43;2.40;;;;;;;12.65;74.58;100924.53;5333022;26;20012;-50
2024/04/13 00:26:39;;;;;;;4.70;1.52;;;;;;;12.56;75.24;100926.22;5359226;26;20024;-51
2024/04/13 00:29:06;;;;;;;9.77;1.45;;;;;;;12.55;75.29;100924.50;5369818;26;20019;-49
2024/04/13 00:31:34;;;;;;;6.05;1.75;;;;;;;12.59;74.52;100931.44;5364494;26;20003;-50
2024/04/13 00:34:02;;;;;;;4.68;1.48;;;;;;;12.56;75.11;100931.44;5369557;26;20040;-49
2024/04/13 00:36:32;;;;;;;7.45;1.15;;;;;;;12.53;75.06;100926.22;5369441;26;20000;-50
2024/04/13 00:39:00;;;;;;;7.22;1.27;;;;;;;12.55;74.40;100929.69;5369809;26;20033;-51
2024/04/13 00:41:31;;;;;;;11.95;1.90;;;;;;;12.47;75.06;100932.25;5366866;26;20518;-52
2024/04/13 00:44:00;;;;;;;4.43;1.35;;;;;;;12.51;74.91;100933.16;5358865;26;20011;-49
2024/04/13 00:46:31;;;;;;;4.95;1.10;;;;;;;12.48;74.98;100938.34;5360266;26;20015;-50
2024/04/13 00:49:10;;;;;;;7.28;1.70;;;;;;;12.44;75.20;100946.97;5359030;26;20008;-54
2024/04/13 00:51:41;;;;;;;11.00;1.67;;;;;;;12.46;75.11;100946.13;5366529;26;20019;-51
2024/04/13 00:54:13;;;;;;;4.88;1.45;;;;;;;12.48;74.71;100951.31;5357502;26;20012;-51
2024/04/13 00:56:43;;;;;;;7.63;2.17;;;;;;;12.47;75.00;100958.25;5360767;26;20031;-49
2024/04/13 00:59:10;;;;;;;6.82;1.15;;;;;;;12.43;75.64;100966.03;5357989;26;20004;-48
2024/04/13 01:01:38;;;;;;;4.70;1.30;;;;;;;12.41;75.67;100972.94;5370318;26;20094;-51
2024/04/13 01:04:05;;;;;;;9.10;1.90;;;;;;;12.45;75.51;100972.97;5364447;26;20039;-49
2024/04/13 01:06:32;;;;;;;8.20;2.28;;;;;;;12.47;75.00;100967.78;5361459;26;20008;-52
2024/04/13 01:09:00;;;;;;;4.72;1.52;;;;;;;12.47;75.32;100967.78;5367692;26;20819;-47
2024/04/13 01:11:29;;;;;;;6.78;1.50;;;;;;;12.46;75.10;100960.84;5369088;26;20082;-49
2024/04/13 01:13:57;;;;;;;7.45;1.75;;;;;;;12.44;75.28;100967.78;5364731;26;20036;-51
2024/04/13 01:16:26;;;;;;;12.05;2.25;;;;;;;12.46;74.90;100958.22;5349321;26;20428;-49
2024/04/13 01:18:53;;;;;;;9.68;2.47;;;;;;;12.47;75.05;100953.03;5360890;26;20000;-50
2024/04/13 01:21:20;;;;;;;9.10;1.65;;;;;;;12.45;75.02;100966.91;5371457;26;20065;-50
2024/04/13 01:23:55;;;;;;;10.38;2.28;;;;;;;12.42;75.13;100959.97;5349904;26;20019;-52
2024/04/13 01:26:23;;;;;;;4.18;1.95;;;;;;;12.41;75.32;100963.44;5370314;26;20570;-48
2024/04/13 01:28:50;;;;;;;8.35;2.10;;;;;;;12.42;75.48;100959.97;5366827;26;20414;-48
2024/04/13 01:31:18;;;;;;;10.73;3.28;;;;;;;12.40;75.68;100966.88;5371136;26;20111;-51
2024/04/13 01:33:45;;;;;;;10.13;2.35;;;;;;;12.42;75.54;100959.97;5359971;26;20088;-48
2024/04/13 01:36:12;;;;;;;8.50;2.22;;;;;;;12.38;75.72;100958.22;5366488;26;20000;-51
2024/04/13 01:38:38;;;;;;;11.30;3.17;;;;;;;12.40;75.71;100948.69;5359811;26;20012;-48
2024/04/13 01:41:05;;;;;;;11.15;3.05;;;;;;;12.46;75.32;100947.84;5360083;26;20016;-50
2024/04/13 01:43:32;;;;;;;8.93;1.60;;;;;;;12.38;75.71;100945.22;5371574;26;20008;-50
2024/04/13 01:46:00;;;;;;;10.60;2.17;;;;;;;12.42;75.35;100946.97;5367107;26;20006;-50
2024/04/13 01:48:27;;;;;;;5.45;2.30;;;;;;;12.42;75.03;100944.38;5370879;26;20345;-50
2024/04/13 01:50:54;;;;;;;17.23;2.70;;;;;;;12.38;75.60;100952.13;5357059;26;20726;-54
2024/04/13 01:53:21;;;;;;;9.43;2.05;;;;;;;12.27;75.91;100952.97;5369015;26;20004;-49
2024/04/13 01:55:48;;;;;;;6.88;1.83;;;;;;;12.33;75.41;100947.78;5361277;26;20042;-52
2024/04/13 01:58:14;;;;;;;9.32;2.85;;;;;;;12.31;75.40;100944.34;5365165;26;20026;-50
2024/04/13 02:00:41;;;;;;;11.35;2.60;;;;;;;12.25;75.71;100939.09;5369535;26;20016;-52
2024/04/13 02:03:08;;;;;;;8.10;2.72;;;;;;;12.29;75.30;100947.78;5362697;26;20009;-50
2024/04/13 02:05:37;;;;;;;7.10;2.08;;;;;;;12.23;75.41;100937.38;5361582;26;20008;-52
2024/04/13 02:08:06;;;;;;;12.50;2.53;;;;;;;12.25;74.86;100940.81;5367392;26;20501;-50
2024/04/13 02:10:33;;;;;;;8.13;2.75;;;;;;;12.23;75.33;100943.44;5363872;26;20008;-52
2024/04/13 02:13:00;;;;;;;7.50;2.47;;;;;;;12.20;75.01;100939.06;5364737;26;20004;-47
2024/04/13 02:15:27;;;;;;;8.35;2.47;;;;;;;12.16;75.38;100947.72;5360976;26;20051;-54
2024/04/13 02:17:54;;;;;;;9.27;3.22;;;;;;;12.16;75.39;100941.66;5365951;26;20015;-49
2024/04/13 02:20:21;;;;;;;8.25;2.80;;;;;;;12.21;75.09;100945.16;5364953;26;20004;-53
2024/04/13 02:22:48;;;;;;;10.38;2.75;;;;;;;12.17;75.27;100931.28;5368147;26;20000;-51
2024/04/13 02:25:15;;;;;;;7.13;1.88;;;;;;;12.19;74.96;100936.47;5370862;26;20028;-49
2024/04/13 02:27:42;;;;;;;14.80;3.10;;;;;;;12.20;75.49;100943.41;5348898;26;20015;-51
2024/04/13 02:30:09;;;;;;;2.88;1.33;;;;;;;12.15;75.34;100939.91;5373003;26;20063;-49
2024/04/13 02:32:37;;;;;;;8.52;2.72;;;;;;;12.20;74.89;100935.63;5369714;26;20005;-49
2024/04/13 02:35:07;;;;;;;10.63;2.78;;;;;;;12.19;75.03;100936.47;5360397;26;20011;-50
2024/04/13 02:37:34;;;;;;;12.23;2.25;;;;;;;12.13;75.59;100936.47;5362438;26;20008;-52
2024/04/13 02:40:06;;;;;;;6.03;2.20;;;;;;;12.16;75.40;100941.66;5364829;26;20008;-49
2024/04/13 02:42:38;;;;;;;3.15;2.00;;;;;;;12.12;75.26;100934.72;5369018;26;20418;-48
2024/04/13 02:45:05;;;;;;;6.30;2.60;;;;;;;12.14;75.15;100936.47;5360975;26;20446;-53
2024/04/13 02:47:32;;;;;;;9.63;3.08;;;;;;;12.17;74.86;100922.63;5370881;26;20028;-51
2024/04/13 02:49:59;;;;;;;6.22;2.70;;;;;;;12.15;75.26;100930.41;5373182;26;20011;-52
2024/04/13 02:52:28;;;;;;;8.85;2.13;;;;;;;12.08;75.07;100934.69;5369255;26;20036;-52
2024/04/13 02:54:55;;;;;;;6.60;1.58;;;;;;;12.05;75.47;100929.47;5371810;26;20004;-52
2024/04/13 02:57:24;;;;;;;6.03;2.67;;;;;;;11.99;75.60;100928.56;5362933;26;20020;-49
2024/04/13 02:59:51;;;;;;;10.98;3.35;;;;;;;12.03;75.28;100923.38;5358101;26;20012;-51
2024/04/13 03:02:19;;;;;;;9.35;2.80;;;;;;;12.01;74.93;100912.13;5370773;26;20376;-51
2024/04/13 03:04:50;;;;;;;10.15;2.35;;;;;;;11.99;75.25;100907.78;5365591;26;20023;-51
2024/04/13 03:07:17;;;;;;;11.50;3.38;;;;;;;12.03;75.19;100904.34;5366328;26;20048;-51
2024/04/13 03:09:45;;;;;;;10.95;2.60;;;;;;;12.05;74.86;100903.50;5365627;26;20073;-51
2024/04/13 03:12:11;;;;;;;9.43;2.83;;;;;;;12.04;74.68;100906.97;5361457;26;20129;-51
2024/04/13 03:14:38;;;;;;;14.82;3.13;;;;;;;12.04;74.54;100899.16;5359159;26;20004;-53
2024/04/13 03:17:05;;;;;;;8.45;2.33;;;;;;;12.02;74.74;100887.88;5365248;26;20453;-54
2024/04/13 03:19:32;;;;;;;14.55;2.33;;;;;;;11.92;75.17;100892.16;5367333;26;20364;-53
2024/04/13 03:21:59;;;;;;;7.00;2.45;;;;;;;11.94;74.96;100887.00;5361811;26;20007;-53
2024/04/13 03:24:25;;;;;;;8.50;2.88;;;;;;;11.94;74.80;100899.97;5354620;26;20001;-54
2024/04/13 03:26:52;;;;;;;4.32;2.20;;;;;;;11.97;74.76;100889.59;5369539;26;20420;-48
2024/04/13 03:29:19;;;;;;;9.90;2.97;;;;;;;11.98;74.89;100885.25;5354608;26;20058;-52
2024/04/13 03:31:47;;;;;;;11.38;3.30;;;;;;;11.99;74.66;100887.88;5364597;26;20004;-49
2024/04/13 03:34:14;;;;;;;11.20;2.80;;;;;;;12.03;74.83;100883.56;5362957;26;20793;-52
2024/04/13 03:36:41;;;;;;;12.70;2.88;;;;;;;12.04;74.82;100887.91;5364440;26;20012;-50
2024/04/13 03:39:07;;;;;;;7.03;2.00;;;;;;;11.96;75.24;100867.97;5368936;26;20037;-51
2024/04/13 03:41:34;;;;;;;7.93;2.67;;;;;;;12.00;74.94;100858.47;5363243;26;20000;-51
2024/04/13 03:44:01;;;;;;;11.85;3.90;;;;;;;12.01;75.05;100855.00;5351090;26;20087;-50
2024/04/13 03:46:28;;;;;;;4.53;1.58;;;;;;;11.96;75.07;100846.34;5366347;26;20098;-47
2024/04/13 03:48:55;;;;;;;6.43;2.85;;;;;;;11.94;75.04;100842.84;5364244;26;20621;-51
2024/04/13 03:51:21;;;;;;;6.60;3.65;;;;;;;11.96;74.95;100843.75;5363515;26;20004;-49
2024/04/13 03:53:48;;;;;;;3.22;1.10;;;;;;;11.86;75.80;100849.75;5366742;26;20077;-52
2024/04/13 03:56:16;;;;;;;5.18;2.30;;;;;;;11.91;75.56;100842.84;5362889;26;20076;-48
2024/04/13 03:58:43;;;;;;;13.45;2.63;;;;;;;11.92;75.08;100849.78;5363496;26;20036;-47
2024/04/13 04:01:10;;;;;;;7.97;3.08;;;;;;;11.91;75.21;100855.81;5367929;26;20416;-50
2024/04/13 04:03:37;;;;;;;12.73;2.88;;;;;;;11.92;75.00;100860.16;5367132;26;20512;-48
2024/04/13 04:06:04;;;;;;;13.80;2.10;;;;;;;11.95;75.08;100860.16;5364988;26;20016;-52
2024/04/13 04:08:33;;;;;;;5.18;1.65;;;;;;;11.91;75.09;100853.22;5365532;26;20000;-50
2024/04/13 04:11:00;;;;;;;10.23;3.20;;;;;;;11.90;75.35;100865.34;5365830;26;20045;-50
2024/04/13 04:13:27;;;;;;;4.85;3.03;;;;;;;11.92;75.02;100860.16;5369559;26;20373;-49
2024/04/13 04:15:53;;;;;;;7.43;2.13;;;;;;;11.91;74.89;100848.91;5364816;26;20008;-47
2024/04/13 04:18:20;;;;;;;11.95;2.65;;;;;;;11.91;74.93;100859.28;5359299;26;20011;-47
2024/04/13 04:20:47;;;;;;;7.60;2.58;;;;;;;11.91;74.56;100856.69;5364157;26;20089;-49
2024/04/13 04:23:14;;;;;;;8.07;2.80;;;;;;;11.91;74.50;100858.41;5368812;26;20008;-48
2024/04/13 04:25:41;;;;;;;8.93;3.13;;;;;;;11.89;74.85;100861.00;5364575;26;20860;-49
2024/04/13 04:28:08;;;;;;;8.60;3.17;;;;;;;11.85;75.16;100854.06;5367956;26;20076;-48
2024/04/13 04:30:35;;;;;;;7.20;2.13;;;;;;;11.85;74.75;100848.88;5365533;26;20015;-50
2024/04/13 04:33:02;;;;;;;6.40;1.83;;;;;;;11.83;74.72;100843.66;5359568;26;20087;-52
2024/04/13 04:35:29;;;;;;;15.23;5.13;;;;;;;11.88;74.72;100853.19;5363350;26;20008;-48
2024/04/13 04:37:56;;;;;;;12.38;3.85;;;;;;;11.89;74.61;100849.75;5359331;26;20442;-51
2024/04/13 04:40:23;;;;;;;10.43;2.78;;;;;;;11.89;74.91;100839.38;5369445;26;20005;-50
2024/04/13 04:42:50;;;;;;;12.25;4.13;;;;;;;11.91;74.94;100843.72;5366258;26;20086;-51
2024/04/13 04:45:17;;;;;;;11.30;4.28;;;;;;;11.91;74.74;100842.84;5362143;26;19996;-49
2024/04/13 04:47:44;;;;;;;13.40;3.15;;;;;;;11.89;74.60;100844.56;5366900;26;20008;-47
2024/04/13 04:50:12;;;;;;;11.70;5.07;;;;;;;11.88;74.46;100848.88;5361603;26;20024;-51
2024/04/13 04:52:38;;;;;;;15.68;5.95;;;;;;;11.88;74.54;100848.00;5359770;26;20008;-48
2024/04/13 04:55:09;;;;;;;21.67;7.00;;;;;;;11.89;74.57;100852.38;5360824;26;20000;-51
2024/04/13 04:57:36;;;;;;;13.30;4.95;;;;;;;11.89;74.69;100840.22;5358196;26;20073;-53
2024/04/13 05:00:04;;;;;;;15.55;3.13;;;;;;;11.87;74.59;100836.78;5375148;26;20399;-51
2024/04/13 05:02:31;;;;;;;10.88;5.10;;;;;;;11.90;74.63;100838.50;5372408;26;20015;-49
2024/04/13 05:04:58;;;;;;;9.55;2.60;;;;;;;11.87;74.39;100828.13;5354532;26;20015;-48
2024/04/13 05:07:25;;;;;;;13.38;2.72;;;;;;;11.88;74.52;100832.44;5358360;26;20083;-49
2024/04/13 05:09:51;;;;;;;8.75;2.17;;;;;;;11.85;74.38;100832.44;5364758;26;20324;-49
2024/04/13 05:12:18;;;;;;;8.65;2.47;;;;;;;11.84;74.36;100828.97;5366214;26;20008;-49
2024/04/13 05:14:45;;;;;;;5.55;2.25;;;;;;;11.81;74.60;100827.22;5354972;26;20024;-50
2024/04/13 05:17:13;;;;;;;7.53;2.53;;;;;;;11.79;74.52;100810.78;5358982;26;20023;-49
2024/04/13 05:19:40;;;;;;;7.85;2.65;;;;;;;11.80;74.70;100814.25;5367058;26;20026;-48
2024/04/13 05:22:08;;;;;;;12.23;2.55;;;;;;;11.81;74.42;100821.16;5360165;26;20019;-49
2024/04/13 05:24:35;;;;;;;8.00;2.60;;;;;;;11.81;74.72;100819.44;5370043;26;20008;-49
2024/04/13 05:27:06;;;;;;;7.32;1.88;;;;;;;11.83;74.21;100820.31;5366757;26;20016;-48
2024/04/13 05:29:34;;;;;;;9.75;2.25;;;;;;;11.79;74.62;100813.38;5372781;26;20004;-51
2024/04/13 05:32:03;;;;;;;12.77;3.05;;;;;;;11.80;74.49;100814.25;5371695;26;20056;-52
2024/04/13 05:34:30;;;;;;;7.93;2.40;;;;;;;11.79;74.58;100815.97;5366736;26;20005;-49
2024/04/13 05:36:57;;;;;;;11.95;2.22;;;;;;;11.80;74.51;100812.53;5358104;26;19997;-53
2024/04/13 05:39:24;;;;;;;6.07;2.20;;;;;;;11.78;74.26;100814.25;5357745;26;20004;-48
2024/04/13 05:41:51;;;;;;;5.18;2.17;;;;;;;11.77;74.37;100806.44;5372608;26;20011;-50
2024/04/13 05:44:18;;;;;;;10.15;2.30;;;;;;;11.76;74.41;100797.78;5368441;26;20350;-51
2024/04/13 05:46:45;;;;;;;7.93;2.50;;;;;;;11.75;74.29;100801.25;5355850;26;20047;-52
2024/04/13 05:49:12;;;;;;;5.65;2.10;;;;;;;11.75;74.45;100785.66;5366888;26;20004;-50
2024/04/13 05:51:39;;;;;;;9.98;2.47;;;;;;;11.77;74.53;100803.84;5362212;26;20040;-51
2024/04/13 05:54:06;;;;;;;5.90;1.50;;;;;;;11.76;74.49;100802.97;5369531;26;20161;-52
2024/04/13 05:56:33;;;;;;;11.90;2.72;;;;;;;11.77;74.43;100789.16;5356414;26;20104;-50
2024/04/13 05:59:00;;;;;;;7.75;2.35;;;;;;;11.74;74.27;100783.94;5369513;26;20012;-49
2024/04/13 06:01:26;;;;;;;8.20;2.05;;;;;;;11.74;74.10;100783.94;5368361;26;20884;-49
2024/04/13 06:03:53;;;;;;;6.00;2.50;;;;;;;11.73;74.17;100792.59;5370107;26;20085;-52
2024/04/13 06:06:20;;;;;;;9.95;2.85;;;;;;;11.72;73.99;100774.41;5365591;26;20031;-47
2024/04/13 06:08:47;;;;;;;7.63;2.60;;;;;;;11.71;74.23;100768.34;5363617;26;20013;-53
2024/04/13 06:11:14;;;;;;;6.07;2.28;;;;;;;11.73;74.27;100770.97;5369676;26;20008;-48
2024/04/13 06:13:41;;;;;;;7.65;2.25;;;;;;;11.74;74.12;100773.56;5371074;26;20004;-47
2024/04/13 06:16:08;;;;;;;6.70;2.20;;;;;;;11.77;74.03;100767.50;5371819;26;20016;-50
2024/04/13 06:18:35;;;;;;;9.80;2.38;;;;;;;11.78;74.03;100767.53;5369009;26;20093;-49
2024/04/13 06:21:02;;;;;;;8.95;2.85;;;;;;;11.79;74.03;100765.81;5352963;26;20036;-48
2024/04/13 06:23:29;;;;;;;14.55;2.80;;;;;;;11.79;74.26;100764.06;5370622;26;21212;-50
2024/04/13 06:25:56;;;;;;;7.50;2.60;;;;;;;11.80;74.02;100763.22;5358083;26;20465;-49
2024/04/13 06:28:23;;;;;;;6.05;2.05;;;;;;;11.81;74.18;100759.75;5366650;26;20011;-47
2024/04/13 06:30:51;;;;;;;7.55;2.45;;;;;;;11.87;74.32;100758.91;5367261;26;20078;-50
2024/04/13 06:33:18;;;;;;;7.00;1.70;;;;;;;11.92;74.05;100756.34;5363034;26;20000;-50
2024/04/13 06:35:50;;;;;;;6.93;2.30;;;;;;;11.98;74.25;100756.34;5368239;26;20008;-49
2024/04/13 06:38:22;;;;;;;6.65;2.10;;;;;;;12.02;73.99;100752.88;5362281;26;20008;-50
2024/04/13 06:40:49;;;;;;;8.20;2.75;;;;;;;12.04;74.06;100766.75;5357919;26;20015;-49
2024/04/13 06:43:16;;;;;;;7.32;1.77;;;;;;;12.09;73.40;100766.78;5373289;26;20015;-51
2024/04/13 06:45:42;;;;;;;13.27;3.47;;;;;;;12.17;73.57;100761.59;5363122;26;20939;-48
2024/04/13 06:48:09;;;;;;;12.27;3.55;;;;;;;12.21;73.39;100769.41;5359956;26;20004;-51
2024/04/13 06:50:36;;;;;;;12.95;3.67;;;;;;;12.25;73.55;100765.09;5359881;26;20016;-49
2024/04/13 06:53:03;;;;;;;8.88;2.30;;;;;;;12.30;73.68;100765.94;5357552;26;20015;-49
2024/04/13 06:55:30;;;;;;;10.00;2.40;;;;;;;12.31;73.41;100765.09;5358668;26;20012;-48
2024/04/13 06:57:57;;;;;;;7.28;2.60;;;;;;;12.31;72.89;100765.09;5367410;26;20008;-48
2024/04/13 07:00:23;;;;;;;7.13;2.30;;;;;;;12.34;72.88;100770.28;5352260;26;20011;-49
2024/04/13 07:02:50;;;;;;;6.25;1.67;;;;;;;12.37;73.08;100773.75;5353552;26;20016;-49
2024/04/13 07:05:18;;;;;;;8.48;2.13;;;;;;;12.34;73.35;100778.06;5346374;26;20004;-57
2024/04/13 07:07:44;;;;;;;5.85;2.67;;;;;;;12.34;72.84;100766.84;5350413;26;20350;-48
2024/04/13 07:10:11;;;;;;;8.68;2.55;;;;;;;12.27;73.23;100768.56;5353643;26;20009;-48
2024/04/13 07:12:39;;;;;;;9.77;2.20;;;;;;;12.31;73.30;100759.91;5362314;26;20337;-53
2024/04/13 07:15:06;;;;;;;7.43;2.65;;;;;;;12.31;73.13;100759.03;5351592;26;20102;-50
2024/04/13 07:17:33;;;;;;;6.22;1.63;;;;;;;12.27;73.44;100750.38;5354761;26;20028;-49
2024/04/13 07:20:00;;;;;;;4.32;1.45;;;;;;;12.28;73.26;100744.31;5340847;26;20401;-51
2024/04/13 07:22:27;;;;;;;9.05;3.08;;;;;;;12.34;73.25;100738.25;5362253;26;20008;-49
2024/04/13 07:24:53;;;;;;;6.53;2.72;;;;;;;12.38;73.09;100749.50;5341129;26;20027;-49
2024/04/13 07:27:20;;;;;;;3.30;1.70;;;;;;;12.34;73.48;100744.31;5344003;26;20540;-49
2024/04/13 07:29:47;;;;;;;9.88;2.55;;;;;;;12.46;73.37;100745.19;5348243;26;20013;-53
2024/04/13 07:32:14;;;;;;;8.73;3.20;;;;;;;12.58;73.09;100728.75;5352103;26;21117;-51
2024/04/13 07:34:41;;;;;;;4.95;1.77;;;;;;;12.62;73.02;100742.59;5369224;26;20350;-48
2024/04/13 07:37:08;;;;;;;8.63;2.25;;;;;;;12.67;73.05;100731.31;5363245;26;20028;-52
2024/04/13 07:39:35;;;;;;;6.82;3.08;;;;;;;12.69;72.03;100723.53;5371029;26;20004;-52
2024/04/13 07:42:02;;;;;;;7.55;1.85;;;;;;;12.67;72.22;100731.31;5361515;26;20008;-53
2024/04/13 07:44:29;;;;;;;11.32;3.13;;;;;;;12.65;72.11;100727.00;5362909;26;20008;-49
2024/04/13 07:46:56;;;;;;;8.10;2.50;;;;;;;12.67;72.25;100715.72;5363920;26;20001;-50
2024/04/13 07:49:23;;;;;;;7.70;2.67;;;;;;;12.83;72.10;100708.78;5354483;26;20012;-49
2024/04/13 07:51:50;;;;;;;21.35;6.90;;;;;;;13.04;71.98;100712.22;5360275;26;20012;-49
2024/04/13 07:54:17;;;;;;;9.05;3.42;;;;;;;13.20;71.47;100726.06;5366017;26;20008;-48
2024/04/13 07:56:44;;;;;;;9.95;3.13;;;;;;;13.33;70.51;100721.69;5368096;26;20455;-49
2024/04/13 07:59:11;;;;;;;6.47;2.13;;;;;;;13.45;70.71;100715.56;5367464;26;20019;-50
2024/04/13 08:01:38;;;;;;;6.72;2.40;;;;;;;13.52;70.03;100706.03;5352556;26;20020;-47
2024/04/13 08:04:04;;;;;;;6.07;3.13;;;;;;;13.68;69.89;100700.75;5363274;26;20504;-50
2024/04/13 08:06:31;;;;;;;6.55;2.13;;;;;;;13.81;69.68;100707.63;5357555;26;20045;-51
2024/04/13 08:08:58;;;;;;;4.97;2.38;;;;;;;14.20;69.18;100715.19;5353485;26;20016;-48
2024/04/13 08:11:25;;;;;;;13.65;4.43;;;;;;;14.35;68.21;100698.56;5359295;26;20012;-59
2024/04/13 08:13:52;;;;;;;5.22;2.50;;;;;;;14.44;67.17;100709.78;5358765;26;20815;-51
2024/04/13 08:16:18;;;;;;;11.32;3.25;;;;;;;14.61;68.05;100714.88;5359640;26;20016;-51
2024/04/13 08:18:45;;;;;;;5.75;2.17;;;;;;;14.67;67.52;100708.75;5355460;26;20015;-51
2024/04/13 08:21:12;;;;;;;5.65;3.22;;;;;;;14.75;67.44;100701.69;5358914;26;20012;-51
2024/04/13 08:23:39;;;;;;;7.85;2.50;;;;;;;14.80;67.31;100701.69;5358296;26;20009;-51
2024/04/13 08:26:06;;;;;;;4.20;2.38;;;;;;;14.84;66.85;100701.66;5355705;26;20012;-51
2024/04/13 08:28:32;;;;;;;5.28;3.08;;;;;;;14.88;66.33;100698.13;5358682;26;20811;-50
2024/04/13 08:31:07;;;;;;;9.57;2.55;;;;;;;15.08;65.94;100702.28;5354951;26;20015;-52
2024/04/13 08:33:34;;;;;;;7.85;3.13;;;;;;;15.33;66.32;100711.56;5360696;26;20014;-49
2024/04/13 08:36:03;;;;;;;8.60;2.22;;;;;;;15.55;65.13;100701.72;5358590;26;20093;-50
2024/04/13 08:38:31;;;;;;;8.90;2.70;;;;;;;15.85;65.46;100702.19;5356007;26;20097;-53
2024/04/13 08:41:03;;;;;;;6.50;3.00;;;;;;;16.19;64.95;100691.25;5354713;26;20004;-50
2024/04/13 08:43:30;;;;;;;7.72;3.08;;;;;;;16.37;64.32;100684.00;5350957;26;20024;-51
2024/04/13 08:46:03;;;;;;;6.47;2.88;;;;;;;16.43;63.53;100693.50;5357118;26;20026;-50
2024/04/13 08:48:31;;;;;;;6.70;3.25;;;;;;;16.68;64.13;100699.16;5382672;26;20312;-51
2024/04/13 08:50:59;;;;;;;7.22;2.58;;;;;;;16.90;63.17;100692.69;5355751;26;20048;-52
2024/04/13 08:53:29;;;;;;;6.25;2.40;;;;;;;16.88;62.44;100692.69;5357224;26;20024;-52
2024/04/13 08:55:58;;;;;;;5.15;2.15;;;;;;;16.73;61.70;100711.28;5386869;26;20333;-51
2024/04/13 08:58:27;;;;;;;6.50;2.38;;;;;;;16.53;61.85;100699.44;5352636;26;20005;-49
2024/04/13 09:00:59;;;;;;;;;;;;;;;16.36;61.95;100692.75;5360165;26;20479;-48
2024/04/13 09:03:27;;;;;;;5.78;2.38;;;;;;;16.30;62.13;100677.16;5352736;26;19969;-51
2024/04/13 09:05:54;;;;;;;8.10;2.67;;;;;;;16.30;62.49;100677.16;5347062;26;20363;-52
2024/04/13 09:08:22;;;;;;;4.82;2.33;;;;;;;16.30;62.75;100679.75;5353533;26;20367;-53
2024/04/13 09:10:52;;;;;;;4.85;2.67;;;;;;;16.27;62.24;100677.19;5358549;26;20012;-51
2024/04/13 09:13:19;;;;;;;6.47;3.00;;;;;;;16.17;62.32;100693.03;5359078;26;20011;-52
2024/04/13 09:15:46;;;;;;;5.85;2.65;;;;;;;16.03;61.89;100695.88;5359181;26;20033;-52
2024/04/13 09:18:13;;;;;;;4.38;1.63;;;;;;;15.90;61.97;100683.81;5366894;26;20081;-48
2024/04/13 09:20:41;;;;;;;7.82;2.40;;;;;;;15.84;62.00;100690.00;5368949;26;20000;-49
2024/04/13 09:23:10;;;;;;;4.63;1.90;;;;;;;15.85;62.33;100686.53;5353896;26;20026;-48
2024/04/13 09:25:37;;;;;;;2.97;1.27;;;;;;;15.94;62.09;100686.38;5370194;26;20019;-49
2024/04/13 09:28:04;;;;;;;4.28;2.17;;;;;;;16.08;61.96;100687.97;5360168;26;20082;-53
2024/04/13 09:30:31;;;;;;;10.35;3.53;;;;;;;16.32;61.78;100683.22;5359835;26;20504;-49
2024/04/13 09:32:59;;;;;;;6.65;2.90;;;;;;;16.39;61.38;100679.63;5368318;26;20009;-52
2024/04/13 09:35:27;;;;;;;3.28;1.90;;;;;;;16.58;61.51;100671.44;5359770;26;20794;-54
2024/04/13 09:37:58;;;;;;;3.28;1.45;;;;;;;16.73;60.67;100669.44;5360956;26;20092;-50
2024/04/13 09:40:25;;;;;;;6.13;2.78;;;;;;;16.94;60.95;100676.91;5341552;26;20082;-51
2024/04/13 09:42:52;;;;;;;4.07;2.63;;;;;;;17.26;60.86;100673.72;5370693;26;20042;-51
2024/04/13 09:45:24;;;;;;;3.55;1.73;;;;;;;17.26;59.57;100673.72;5366127;26;20520;-50
2024/04/13 09:47:52;;;;;;;6.28;2.53;;;;;;;17.28;59.22;100671.91;5338604;26;20013;-52
2024/04/13 09:50:19;;;;;;;4.70;2.47;;;;;;;17.17;58.96;100675.63;5361994;26;20074;-52
2024/04/13 09:52:46;;;;;;;3.08;1.95;;;;;;;17.14;59.72;100677.41;5370891;26;20012;-52
2024/04/13 09:55:13;;;;;;;6.70;2.97;;;;;;;17.08;59.36;100678.41;5361333;26;20016;-51
2024/04/13 09:57:40;;;;;;;6.10;3.05;;;;;;;17.26;59.15;100669.31;5357523;26;20005;-53
2024/04/13 10:00:07;;;;;;;5.32;2.78;;;;;;;17.42;59.36;100682.06;5357417;26;20473;-52
2024/04/13 10:02:35;;;;;;;7.05;3.28;;;;;;;17.49;58.67;100680.22;5355201;26;20026;-52
2024/04/13 10:05:02;;;;;;;3.70;1.90;;;;;;;17.73;58.59;100676.16;5350289;26;20045;-54
2024/04/13 10:07:30;;;;;;;5.65;3.05;;;;;;;18.04;59.07;100675.44;5350926;26;20563;-51
2024/04/13 10:10:02;;;;;;;5.28;2.25;;;;;;;18.18;56.76;100677.81;5346498;26;20020;-50
2024/04/13 10:12:36;;;;;;;4.68;1.70;;;;;;;18.16;56.26;100671.72;5357254;26;20017;-51
2024/04/13 10:15:05;;;;;;;6.25;2.65;;;;;;;18.11;57.30;100652.63;5350052;26;20032;-52
2024/04/13 10:17:31;;;;;;;4.47;1.77;;;;;;;18.03;56.94;100665.88;5355823;26;20459;-49
2024/04/13 10:19:59;;;;;;;8.30;4.20;;;;;;;17.86;56.26;100656.66;5350266;26;20091;-53
2024/04/13 10:22:26;;;;;;;8.38;4.03;;;;;;;17.95;56.12;100649.47;5354333;26;20019;-48
2024/04/13 10:25:06;;;;;;;14.60;6.88;;;;;;;18.14;56.92;100639.47;5350817;26;20085;-49
2024/04/13 10:27:34;;;;;;;21.98;11.13;;;;;;;18.49;57.40;100640.31;5351578;26;20019;-52
2024/04/13 10:30:03;;;;;;;6.57;2.60;;;;;;;18.76;56.46;100650.09;5340486;26;20456;-50
2024/04/13 10:32:30;;;;;;;6.50;2.47;;;;;;;18.74;54.84;100631.75;5360260;26;20526;-52
2024/04/13 10:35:16;;;;;;;5.50;2.65;;;;;;;18.86;55.23;100634.94;5340611;26;20016;-52
2024/04/13 10:37:43;;;;;;;6.55;2.42;;;;;;;18.98;54.51;100626.72;5388645;26;20005;-50
2024/04/13 10:40:09;;;;;;;7.53;3.45;;;;;;;19.00;54.06;100626.69;5362127;26;20048;-53
2024/04/13 10:42:39;;;;;;;2.38;1.33;;;;;;;19.04;53.49;100627.47;5362958;26;20016;-50
2024/04/13 10:45:14;;;;;;;5.25;2.17;;;;;;;18.96;53.40;100620.66;5358765;26;20080;-53
2024/04/13 10:47:42;;;;;;;5.93;1.80;;;;;;;19.12;54.65;100622.88;5369998;26;20019;-52
2024/04/13 10:50:14;;;;;;;3.90;1.80;;;;;;;19.17;52.96;100613.09;5368490;26;20011;-53
2024/04/13 10:52:42;;;;;;;3.90;1.52;;;;;;;19.12;52.32;100617.63;5360835;26;20005;-52
2024/04/13 10:55:15;;;;;;;7.32;1.50;;;;;;;19.14;52.24;100607.94;5358630;26;20077;-53
2024/04/13 10:57:42;;;;;;;4.68;1.42;;;;;;;19.23;52.50;100601.56;5341484;26;20008;-51
2024/04/13 11:00:10;;;;;;;3.78;2.33;;;;;;;19.43;53.59;100598.31;5370012;26;20795;-51
2024/04/13 11:02:37;;;;;;;3.63;1.75;;;;;;;19.42;52.32;100604.47;5371735;26;20413;-55
2024/04/13 11:05:05;;;;;;;3.72;2.42;;;;;;;19.41;52.36;100605.38;5369529;26;20005;-48
2024/04/13 11:07:32;;;;;;;5.40;2.20;;;;;;;18.97;51.27;100596.13;5367138;26;20004;-51
2024/04/13 11:10:02;;;;;;;9.27;2.88;;;;;;;18.94;51.36;100593.59;5355377;26;20309;-50
2024/04/13 11:12:29;;;;;;;3.75;2.35;;;;;;;19.05;52.48;100577.53;5356023;26;20574;-49
2024/04/13 11:14:56;;;;;;;4.80;2.10;;;;;;;19.12;52.38;100575.63;5358667;26;20008;-52
2024/04/13 11:17:23;;;;;;;2.83;1.80;;;;;;;19.12;51.83;100573.00;5373137;26;20026;-51
2024/04/13 11:19:50;;;;;;;5.18;2.33;;;;;;;19.04;51.94;100580.22;5364757;26;20000;-50
2024/04/13 11:22:18;;;;;;;12.00;3.92;;;;;;;19.25;52.62;100579.59;5355202;26;20485;-53
2024/04/13 11:24:46;;;;;;;3.78;1.92;;;;;;;19.29;52.21;100584.75;5351267;26;20005;-53
2024/04/13 11:27:15;;;;;;;8.00;3.50;;;;;;;19.49;53.50;100579.72;5363490;26;20020;-55